createdAt,value
2022-10-18T00:00:12.405Z,98342.28
2022-10-18T00:01:14.159Z,98334.44
2022-10-18T00:02:15.827Z,98339.72
2022-10-18T00:03:17.472Z,98336.16
2022-10-18T00:04:19.022Z,98336.09
2022-10-18T00:05:20.577Z,98339.78
2022-10-18T00:06:22.150Z,98334.94
2022-10-18T00:07:23.755Z,98336.53
2022-10-18T00:08:26.390Z,98336.25
2022-10-18T00:09:27.915Z,98330.00
2022-10-18T00:10:29.456Z,98330.50
2022-10-18T00:11:31.017Z,98326.16
2022-10-18T00:12:37.339Z,98326.75
2022-10-18T00:13:39.117Z,98324.38
2022-10-18T00:14:40.692Z,98325.97
2022-10-18T00:16:12.980Z,98315.97
2022-10-18T00:17:14.530Z,98317.94
2022-10-18T00:18:16.045Z,98318.59
2022-10-18T00:19:17.570Z,98322.63
2022-10-18T00:20:19.656Z,98324.22
2022-10-18T00:21:22.970Z,98311.56
2022-10-18T00:22:25.409Z,98319.31
2022-10-18T00:23:28.437Z,98315.78
2022-10-18T00:24:29.987Z,98320.19
2022-10-18T00:25:31.499Z,98313.88
2022-10-18T00:26:33.132Z,98313.28
2022-10-18T00:27:35.308Z,98316.28
2022-10-18T00:28:39.074Z,98309.53
2022-10-18T00:29:40.715Z,98310.03
2022-10-18T00:30:42.291Z,98312.13
2022-10-18T00:31:44.433Z,98313.72
2022-10-18T00:32:45.967Z,98309.97
2022-10-18T00:33:50.992Z,98311.56
2022-10-18T00:34:52.762Z,98307.78
2022-10-18T00:35:54.346Z,98311.56
2022-10-18T00:36:56.001Z,98304.63
2022-10-18T00:37:57.533Z,98305.09
2022-10-18T00:38:59.047Z,98304.00
2022-10-18T00:40:00.614Z,98305.63
2022-10-18T00:41:03.101Z,98302.13
2022-10-18T00:42:04.879Z,98301.06
2022-10-18T00:43:06.406Z,98300.25
2022-10-18T00:44:27.847Z,98298.09
2022-10-18T00:45:29.578Z,98302.34
2022-10-18T00:46:33.953Z,98294.31
2022-10-18T00:47:35.861Z,98299.09
2022-10-18T00:48:37.630Z,98296.19
2022-10-18T00:49:43.912Z,98294.38
2022-10-18T00:50:46.590Z,98302.41
2022-10-18T00:52:00.781Z,98302.41
2022-10-18T00:53:07.012Z,98299.47
2022-10-18T00:54:08.624Z,98291.94
2022-10-18T00:55:10.842Z,98295.91
2022-10-18T00:56:13.667Z,98296.41
2022-10-18T00:57:15.813Z,98294.81
2022-10-18T00:58:19.266Z,98286.50
2022-10-18T00:59:21.256Z,98282.41
2022-10-18T01:00:23.086Z,98287.78
2022-10-18T01:01:27.608Z,98296.34
2022-10-18T01:02:32.120Z,98284.81
2022-10-18T01:03:35.389Z,98288.28
2022-10-18T01:04:37.126Z,98287.28
2022-10-18T01:05:44.218Z,98285.09
2022-10-18T01:07:08.759Z,98280.34
2022-10-18T01:08:19.259Z,98284.97
2022-10-18T01:09:30.739Z,98275.41
2022-10-18T01:10:48.383Z,98286.41
2022-10-18T01:12:08.513Z,98277.97
2022-10-18T01:13:57.665Z,98275.44
2022-10-18T01:15:06.268Z,98274.38
2022-10-18T01:16:17.187Z,98280.50
2022-10-18T01:17:32.805Z,98278.34
2022-10-18T01:18:37.471Z,98280.72
2022-10-18T01:20:03.404Z,98281.72
2022-10-18T01:21:22.430Z,98281.94
2022-10-18T01:22:28.994Z,98281.44
2022-10-18T01:24:05.446Z,98279.22
2022-10-18T01:25:07.098Z,98274.56
2022-10-18T01:26:35.047Z,98273.56
2022-10-18T01:27:59.442Z,98272.03
2022-10-18T01:29:17.146Z,98259.59
2022-10-18T01:30:48.319Z,98273.69
2022-10-18T01:32:06.334Z,98267.47
2022-10-18T01:33:10.482Z,98264.94
2022-10-18T01:34:16.941Z,98269.16
2022-10-18T01:35:25.395Z,98271.84
2022-10-18T01:36:34.912Z,98266.72
2022-10-18T01:37:38.677Z,98268.38
2022-10-18T01:38:42.908Z,98269.41
2022-10-18T01:39:47.269Z,98267.75
2022-10-18T01:40:50.690Z,98264.63
2022-10-18T01:41:54.406Z,98266.31
2022-10-18T01:42:56.046Z,98263.69
2022-10-18T01:44:02.176Z,98266.94
2022-10-18T01:45:04.618Z,98269.59
2022-10-18T01:46:08.635Z,98270.44
2022-10-18T01:47:13.079Z,98264.97
2022-10-18T01:48:16.365Z,98265.63
2022-10-18T01:49:17.879Z,98279.59
2022-10-18T01:50:29.437Z,98274.25
2022-10-18T01:51:33.043Z,98272.38
2022-10-18T01:52:34.998Z,98266.75
2022-10-18T01:53:36.654Z,98270.81
2022-10-18T01:54:42.265Z,98273.28
2022-10-18T01:55:51.184Z,98275.41
2022-10-18T01:57:00.392Z,98279.66
2022-10-18T01:58:39.541Z,98276.47
2022-10-18T01:59:59.307Z,98280.22
2022-10-18T02:02:39.900Z,98278.34
2022-10-18T02:03:44.565Z,98281.81
2022-10-18T02:05:06.747Z,98280.66
2022-10-18T02:06:18.948Z,98276.81
2022-10-18T02:07:37.199Z,98281.00
2022-10-18T02:08:44.701Z,98283.66
2022-10-18T02:09:55.676Z,98274.53
2022-10-18T02:11:02.686Z,98283.09
2022-10-18T02:12:06.371Z,98281.97
2022-10-18T02:13:10.858Z,98275.59
2022-10-18T02:14:16.479Z,98271.81
2022-10-18T02:15:23.789Z,98272.88
2022-10-18T02:16:37.832Z,98277.66
2022-10-18T02:17:40.734Z,98270.94
2022-10-18T02:19:05.835Z,98277.56
2022-10-18T02:20:10.170Z,98275.47
2022-10-18T02:21:15.885Z,98273.34
2022-10-18T02:22:18.533Z,98266.97
2022-10-18T02:23:24.047Z,98277.66
2022-10-18T02:24:34.439Z,98265.34
2022-10-18T02:25:36.941Z,98274.94
2022-10-18T02:26:38.837Z,98270.63
2022-10-18T02:27:40.436Z,98270.81
2022-10-18T02:28:42.603Z,98272.13
2022-10-18T02:29:45.214Z,98266.25
2022-10-18T02:30:53.208Z,98272.66
2022-10-18T02:32:31.540Z,98270.19
2022-10-18T02:33:45.405Z,98267.75
2022-10-18T02:34:57.169Z,98262.94
2022-10-18T02:36:10.516Z,98271.44
2022-10-18T02:37:14.479Z,98262.34
2022-10-18T02:38:18.845Z,98259.41
2022-10-18T02:39:35.796Z,98267.94
2022-10-18T02:40:37.647Z,98260.31
2022-10-18T02:41:39.266Z,98268.44
2022-10-18T02:42:50.918Z,98264.16
2022-10-18T02:43:53.054Z,98265.22
2022-10-18T02:44:54.641Z,98270.34
2022-10-18T02:45:56.222Z,98265.06
2022-10-18T02:46:57.733Z,98271.22
2022-10-18T02:47:59.284Z,98271.69
2022-10-18T02:49:00.826Z,98276.50
2022-10-18T02:50:02.376Z,98274.84
2022-10-18T02:51:03.995Z,98275.88
2022-10-18T02:52:05.540Z,98274.53
2022-10-18T02:53:07.036Z,98273.72
2022-10-18T02:54:08.655Z,98282.41
2022-10-18T02:55:10.855Z,98277.66
2022-10-18T02:56:12.444Z,98272.31
2022-10-18T02:57:14.008Z,98271.75
2022-10-18T02:58:15.528Z,98278.16
2022-10-18T02:59:17.073Z,98281.31
2022-10-18T03:00:18.698Z,98279.19
2022-10-18T03:01:20.271Z,98280.78
2022-10-18T03:02:21.847Z,98277.56
2022-10-18T03:03:23.385Z,98279.19
2022-10-18T03:04:24.941Z,98278.38
2022-10-18T03:05:26.502Z,98272.00
2022-10-18T03:06:28.597Z,98287.00
2022-10-18T03:07:30.657Z,98278.31
2022-10-18T03:08:32.531Z,98288.03
2022-10-18T03:09:34.056Z,98285.00
2022-10-18T03:10:35.585Z,98287.22
2022-10-18T03:11:37.235Z,98288.31
2022-10-18T03:12:38.817Z,98286.53
2022-10-18T03:13:40.352Z,98286.56
2022-10-18T03:14:41.872Z,98280.44
2022-10-18T03:15:43.404Z,98281.00
2022-10-18T03:16:44.949Z,98278.34
2022-10-18T03:17:46.518Z,98281.50
2022-10-18T03:18:48.034Z,98279.88
2022-10-18T03:19:49.659Z,98284.63
2022-10-18T03:20:51.171Z,98289.31
2022-10-18T03:21:52.789Z,98291.38
2022-10-18T03:22:54.320Z,98282.53
2022-10-18T03:23:56.228Z,98284.94
2022-10-18T03:24:57.737Z,98286.00
2022-10-18T03:25:59.242Z,98286.03
2022-10-18T03:27:00.907Z,98290.34
2022-10-18T03:28:02.557Z,98293.03
2022-10-18T03:29:04.161Z,98290.84
2022-10-18T03:30:06.159Z,98288.19
2022-10-18T03:31:07.671Z,98295.69
2022-10-18T03:32:09.179Z,98297.84
2022-10-18T03:33:10.699Z,98293.56
2022-10-18T03:34:12.235Z,98296.75
2022-10-18T03:35:13.746Z,98288.19
2022-10-18T03:36:15.414Z,98296.16
2022-10-18T03:37:17.033Z,98287.59
2022-10-18T03:38:19.161Z,98293.44
2022-10-18T03:39:20.878Z,98299.81
2022-10-18T03:40:23.181Z,98297.09
2022-10-18T03:41:24.812Z,98297.38
2022-10-18T03:42:26.382Z,98296.00
2022-10-18T03:43:27.945Z,98296.56
2022-10-18T03:44:29.553Z,98297.09
2022-10-18T03:45:31.652Z,98293.38
2022-10-18T03:46:33.370Z,98296.84
2022-10-18T03:47:34.977Z,98297.63
2022-10-18T03:48:36.882Z,98302.72
2022-10-18T03:49:39.042Z,98295.50
2022-10-18T03:50:40.964Z,98293.84
2022-10-18T03:51:42.478Z,98291.13
2022-10-18T03:52:43.990Z,98285.78
2022-10-18T03:53:45.535Z,98293.06
2022-10-18T03:54:47.040Z,98293.91
2022-10-18T03:55:55.601Z,98298.25
2022-10-18T03:56:57.620Z,98299.91
2022-10-18T03:57:59.147Z,98301.25
2022-10-18T03:59:00.725Z,98299.94
2022-10-18T04:00:02.273Z,98298.06
2022-10-18T04:01:03.827Z,98295.94
2022-10-18T04:02:05.479Z,98296.72
2022-10-18T04:03:06.984Z,98305.81
2022-10-18T04:04:08.545Z,98302.34
2022-10-18T04:05:10.177Z,98301.91
2022-10-18T04:06:11.707Z,98301.78
2022-10-18T04:07:13.511Z,98302.84
2022-10-18T04:08:15.523Z,98292.44
2022-10-18T04:09:17.415Z,98298.28
2022-10-18T04:10:18.961Z,98301.22
2022-10-18T04:11:20.476Z,98300.09
2022-10-18T04:12:22.009Z,98296.44
2022-10-18T04:13:23.574Z,98293.28
2022-10-18T04:14:25.212Z,98301.06
2022-10-18T04:15:26.827Z,98299.75
2022-10-18T04:16:28.361Z,98294.41
2022-10-18T04:17:30.283Z,98300.78
2022-10-18T04:18:34.737Z,98296.53
2022-10-18T04:19:36.569Z,98293.09
2022-10-18T04:20:38.263Z,98297.09
2022-10-18T04:21:39.959Z,98301.31
2022-10-18T04:22:41.568Z,98297.03
2022-10-18T04:23:43.131Z,98295.69
2022-10-18T04:24:44.760Z,98296.44
2022-10-18T04:25:46.330Z,98293.75
2022-10-18T04:26:47.883Z,98299.06
2022-10-18T04:27:49.521Z,98293.19
2022-10-18T04:28:51.249Z,98293.97
2022-10-18T04:29:52.839Z,98291.59
2022-10-18T04:30:54.394Z,98289.44
2022-10-18T04:31:55.937Z,98292.63
2022-10-18T04:32:57.471Z,98299.00
2022-10-18T04:33:59.010Z,98289.34
2022-10-18T04:35:00.599Z,98288.81
2022-10-18T04:36:02.303Z,98289.84
2022-10-18T04:37:03.842Z,98289.84
2022-10-18T04:38:05.426Z,98291.75
2022-10-18T04:39:07.031Z,98295.50
2022-10-18T04:40:09.445Z,98290.97
2022-10-18T04:41:10.965Z,98281.09
2022-10-18T04:42:12.491Z,98290.97
2022-10-18T04:43:14.041Z,98293.66
2022-10-18T04:44:15.708Z,98289.44
2022-10-18T04:45:17.333Z,98280.13
2022-10-18T04:46:18.852Z,98286.00
2022-10-18T04:47:20.487Z,98288.38
2022-10-18T04:48:22.054Z,98292.09
2022-10-18T04:49:23.569Z,98293.44
2022-10-18T04:50:25.090Z,98291.81
2022-10-18T04:51:27.269Z,98288.88
2022-10-18T04:52:28.777Z,98294.22
2022-10-18T04:53:30.362Z,98290.50
2022-10-18T04:54:31.940Z,98294.72
2022-10-18T04:55:33.463Z,98289.94
2022-10-18T04:56:35.032Z,98292.88
2022-10-18T04:57:36.598Z,98290.50
2022-10-18T04:58:38.151Z,98282.50
2022-10-18T04:59:39.686Z,98283.59
2022-10-18T05:00:42.187Z,98276.59
2022-10-18T05:01:43.813Z,98278.22
2022-10-18T05:02:45.457Z,98279.25
2022-10-18T05:03:47.009Z,98281.34
2022-10-18T05:04:48.581Z,98281.66
2022-10-18T05:06:01.263Z,98285.38
2022-10-18T05:07:03.155Z,98279.25
2022-10-18T05:08:06.805Z,98285.13
2022-10-18T05:09:08.318Z,98283.47
2022-10-18T05:10:10.108Z,98282.66
2022-10-18T05:11:11.830Z,98281.81
2022-10-18T05:12:13.391Z,98282.56
2022-10-18T05:13:15.097Z,98283.88
2022-10-18T05:14:16.952Z,98275.09
2022-10-18T05:15:18.558Z,98275.59
2022-10-18T05:16:20.295Z,98273.44
2022-10-18T05:17:22.015Z,98276.41
2022-10-18T05:18:23.536Z,98282.53
2022-10-18T05:19:25.139Z,98284.44
2022-10-18T05:20:26.654Z,98284.16
2022-10-18T05:21:28.198Z,98288.19
2022-10-18T05:22:30.007Z,98281.81
2022-10-18T05:23:31.693Z,98280.34
2022-10-18T05:24:33.210Z,98284.28
2022-10-18T05:25:34.718Z,98291.25
2022-10-18T05:26:36.354Z,98284.38
2022-10-18T05:27:37.875Z,98293.50
2022-10-18T05:28:40.859Z,98291.47
2022-10-18T05:29:42.992Z,98287.78
2022-10-18T05:30:44.549Z,98297.91
2022-10-18T05:31:46.084Z,98295.22
2022-10-18T05:32:47.695Z,98293.31
2022-10-18T05:33:49.180Z,98298.38
2022-10-18T05:34:50.713Z,98289.28
2022-10-18T05:35:52.257Z,98291.63
2022-10-18T05:36:53.792Z,98295.06
2022-10-18T05:37:55.286Z,98289.69
2022-10-18T05:38:58.620Z,98294.97
2022-10-18T05:40:02.646Z,98296.00
2022-10-18T05:41:05.357Z,98295.19
2022-10-18T05:42:06.943Z,98298.91
2022-10-18T05:43:08.476Z,98292.75
2022-10-18T05:44:09.981Z,98292.25
2022-10-18T05:45:11.525Z,98294.91
2022-10-18T05:46:15.337Z,98295.69
2022-10-18T05:47:17.305Z,98296.44
2022-10-18T05:48:19.071Z,98295.06
2022-10-18T05:49:20.841Z,98296.88
2022-10-18T05:50:22.407Z,98302.69
2022-10-18T05:51:24.111Z,98297.25
2022-10-18T05:52:25.639Z,98298.31
2022-10-18T05:53:37.100Z,98299.09
2022-10-18T05:54:40.488Z,98304.06
2022-10-18T05:55:42.009Z,98300.59
2022-10-18T05:56:43.549Z,98304.06
2022-10-18T05:57:50.178Z,98297.31
2022-10-18T05:58:52.205Z,98295.13
2022-10-18T05:59:53.749Z,98298.59
2022-10-18T06:00:59.151Z,98308.69
2022-10-18T06:02:00.738Z,98301.03
2022-10-18T06:03:02.273Z,98297.47
2022-10-18T06:04:03.879Z,98298.00
2022-10-18T06:05:05.573Z,98298.38
2022-10-18T06:06:10.124Z,98298.63
2022-10-18T06:07:12.474Z,98287.31
2022-10-18T06:08:14.197Z,98289.63
2022-10-18T06:09:15.761Z,98287.03
2022-10-18T06:10:17.282Z,98286.59
2022-10-18T06:11:20.338Z,98290.34
2022-10-18T06:12:21.876Z,98288.06
2022-10-18T06:13:23.587Z,98291.56
2022-10-18T06:14:25.142Z,98297.22
2022-10-18T06:15:26.721Z,98292.22
2022-10-18T06:16:32.195Z,98301.94
2022-10-18T06:17:34.456Z,98302.56
2022-10-18T06:18:36.629Z,98302.41
2022-10-18T06:19:38.138Z,98302.50
2022-10-18T06:20:39.659Z,98296.69
2022-10-18T06:21:41.546Z,98299.19
2022-10-18T06:22:43.058Z,98304.00
2022-10-18T06:23:51.831Z,98303.22
2022-10-18T06:24:57.126Z,98298.69
2022-10-18T06:26:04.107Z,98294.72
2022-10-18T06:27:09.039Z,98297.63
2022-10-18T06:28:12.281Z,98301.00
2022-10-18T06:29:15.231Z,98307.41
2022-10-18T06:30:17.056Z,98305.06
2022-10-18T06:31:21.309Z,98305.31
2022-10-18T06:32:22.873Z,98302.78
2022-10-18T06:33:24.711Z,98301.22
2022-10-18T06:34:26.322Z,98302.84
2022-10-18T06:35:27.890Z,98298.28
2022-10-18T06:36:29.403Z,98305.66
2022-10-18T06:37:31.331Z,98300.53
2022-10-18T06:38:34.359Z,98299.41
2022-10-18T06:39:35.909Z,98303.75
2022-10-18T06:40:38.224Z,98299.25
2022-10-18T06:41:39.797Z,98299.81
2022-10-18T06:42:41.393Z,98299.38
2022-10-18T06:43:43.853Z,98300.22
2022-10-18T06:44:45.433Z,98296.69
2022-10-18T06:45:47.018Z,98299.97
2022-10-18T06:46:49.336Z,98299.78
2022-10-18T06:47:50.849Z,98304.88
2022-10-18T06:48:52.372Z,98299.97
2022-10-18T06:49:53.947Z,98297.19
2022-10-18T06:51:00.573Z,98303.47
2022-10-18T06:52:02.452Z,98293.13
2022-10-18T06:53:06.229Z,98295.09
2022-10-18T06:54:17.612Z,98295.72
2022-10-18T06:55:19.856Z,98295.53
2022-10-18T06:56:21.434Z,98296.50
2022-10-18T06:57:22.987Z,98293.81
2022-10-18T06:58:24.545Z,98283.00
2022-10-18T06:59:28.885Z,98288.19
2022-10-18T07:00:32.757Z,98281.19
2022-10-18T07:01:34.400Z,98284.13
2022-10-18T07:02:37.442Z,98278.66
2022-10-18T07:03:39.696Z,98279.22
2022-10-18T07:04:42.072Z,98278.31
2022-10-18T07:05:43.711Z,98274.47
2022-10-18T07:06:45.387Z,98274.97
2022-10-18T07:07:46.898Z,98269.84
2022-10-18T07:08:49.670Z,98279.13
2022-10-18T07:09:51.224Z,98274.06
2022-10-18T07:10:53.354Z,98276.44
2022-10-18T07:11:54.935Z,98268.19
2022-10-18T07:13:19.683Z,98274.94
2022-10-18T07:14:17.933Z,98268.41
2022-10-18T07:15:22.604Z,98268.34
2022-10-18T07:16:24.201Z,98262.63
2022-10-18T07:17:26.426Z,98261.19
2022-10-18T07:18:28.037Z,98268.94
2022-10-18T07:19:29.558Z,98260.53
2022-10-18T07:20:31.106Z,98267.34
2022-10-18T07:21:32.669Z,98263.16
2022-10-18T07:22:34.223Z,98265.53
2022-10-18T07:23:37.509Z,98259.84
2022-10-18T07:24:39.397Z,98260.13
2022-10-18T07:25:40.930Z,98265.63
2022-10-18T07:26:42.676Z,98259.50
2022-10-18T07:27:44.192Z,98261.38
2022-10-18T07:28:48.914Z,98259.47
2022-10-18T07:29:50.521Z,98247.78
2022-10-18T07:30:52.107Z,98252.44
2022-10-18T07:31:53.627Z,98251.72
2022-10-18T07:32:55.143Z,98242.69
2022-10-18T07:33:57.247Z,98244.63
2022-10-18T07:34:58.781Z,98248.88
2022-10-18T07:36:05.394Z,98244.16
2022-10-18T07:37:06.916Z,98242.22
2022-10-18T07:38:08.433Z,98236.66
2022-10-18T07:39:10.071Z,98241.59
2022-10-18T07:40:12.202Z,98240.00
2022-10-18T07:41:15.025Z,98239.59
2022-10-18T07:42:16.607Z,98238.75
2022-10-18T07:43:18.125Z,98239.97
2022-10-18T07:44:19.715Z,98236.88
2022-10-18T07:45:21.261Z,98232.50
2022-10-18T07:46:23.059Z,98231.41
2022-10-18T07:47:24.587Z,98236.50
2022-10-18T07:48:26.725Z,98228.69
2022-10-18T07:49:28.226Z,98230.56
2022-10-18T07:50:29.950Z,98223.53
2022-10-18T07:51:32.891Z,98219.63
2022-10-18T07:52:34.562Z,98220.69
2022-10-18T07:53:36.095Z,98229.41
2022-10-18T07:54:37.691Z,98223.09
2022-10-18T07:55:39.587Z,98220.81
2022-10-18T07:56:41.331Z,98218.47
2022-10-18T07:57:42.891Z,98210.63
2022-10-18T07:58:45.978Z,98217.56
2022-10-18T07:59:48.334Z,98222.84
2022-10-18T08:00:49.885Z,98220.97
2022-10-18T08:01:51.496Z,98218.22
2022-10-18T08:02:57.690Z,98217.94
2022-10-18T08:04:06.138Z,98213.59
2022-10-18T08:05:09.602Z,98206.19
2022-10-18T08:06:13.367Z,98212.38
2022-10-18T08:07:14.914Z,98215.50
2022-10-18T08:08:16.698Z,98219.38
2022-10-18T08:09:18.428Z,98210.22
2022-10-18T08:10:21.352Z,98213.28
2022-10-18T08:11:24.826Z,98206.31
2022-10-18T08:12:26.358Z,98203.22
2022-10-18T08:13:27.905Z,98207.06
2022-10-18T08:14:29.725Z,98202.63
2022-10-18T08:15:31.314Z,98201.56
2022-10-18T08:17:34.830Z,98201.44
2022-10-18T08:18:38.021Z,98203.03
2022-10-18T08:19:48.230Z,98202.53
2022-10-18T08:21:01.503Z,98197.69
2022-10-18T08:22:03.084Z,98202.03
2022-10-18T08:23:04.871Z,98186.47
2022-10-18T08:24:06.450Z,98190.31
2022-10-18T08:25:08.606Z,98184.00
2022-10-18T08:26:12.934Z,98185.44
2022-10-18T08:27:15.413Z,98181.19
2022-10-18T08:28:17.513Z,98182.25
2022-10-18T08:29:23.219Z,98188.84
2022-10-18T08:30:26.493Z,98182.56
2022-10-18T08:31:28.137Z,98173.09
2022-10-18T08:32:33.404Z,98169.06
2022-10-18T08:33:36.256Z,98173.50
2022-10-18T08:35:40.295Z,98171.22
2022-10-18T08:36:41.940Z,98165.91
2022-10-18T08:37:45.329Z,98164.28
2022-10-18T08:38:47.130Z,98169.09
2022-10-18T08:39:48.714Z,98168.16
2022-10-18T08:40:50.845Z,98171.78
2022-10-18T08:42:01.492Z,98170.00
2022-10-18T08:43:22.626Z,98164.78
2022-10-18T08:44:26.117Z,98167.13
2022-10-18T08:45:41.466Z,98157.78
2022-10-18T08:46:58.951Z,98152.88
2022-10-18T08:48:01.557Z,98155.00
2022-10-18T08:49:05.561Z,98143.69
2022-10-18T08:50:14.893Z,98145.75
2022-10-18T08:51:45.540Z,98145.81
2022-10-18T08:53:25.940Z,98150.16
2022-10-18T08:54:37.465Z,98138.81
2022-10-18T08:56:11.242Z,98140.13
2022-10-18T08:57:15.764Z,98137.22
2022-10-18T08:58:19.918Z,98138.13
2022-10-18T08:59:24.744Z,98132.09
2022-10-18T09:00:34.494Z,98132.38
2022-10-18T09:01:36.217Z,98131.34
2022-10-18T09:03:16.769Z,98123.50
2022-10-18T09:04:33.499Z,98126.38
2022-10-18T09:06:01.384Z,98125.53
2022-10-18T09:07:26.131Z,98128.81
2022-10-18T09:09:11.354Z,98134.66
2022-10-18T09:10:33.901Z,98122.41
2022-10-18T09:11:51.097Z,98127.97
2022-10-18T09:13:19.085Z,98116.91
2022-10-18T09:14:32.498Z,98116.72
2022-10-18T09:15:45.529Z,98114.84
2022-10-18T09:17:05.917Z,98119.59
2022-10-18T09:18:23.466Z,98112.34
2022-10-18T09:19:55.175Z,98107.31
2022-10-18T09:21:05.484Z,98103.56
2022-10-18T09:22:13.934Z,98103.38
2022-10-18T09:23:21.140Z,98103.97
2022-10-18T09:24:32.829Z,98103.78
2022-10-18T09:25:34.355Z,98101.63
2022-10-18T09:26:50.141Z,98099.53
2022-10-18T09:28:27.174Z,98093.41
2022-10-18T09:29:54.744Z,98096.34
2022-10-18T09:31:17.898Z,98092.63
2022-10-18T09:32:44.783Z,98088.69
2022-10-18T09:34:04.663Z,98086.22
2022-10-18T09:35:24.206Z,98081.56
2022-10-18T09:36:35.391Z,98085.84
2022-10-18T09:37:37.014Z,98081.97
2022-10-18T09:38:51.561Z,98080.81
2022-10-18T09:40:03.215Z,98087.09
2022-10-18T09:41:12.268Z,98084.13
2022-10-18T09:42:26.831Z,98072.56
2022-10-18T09:44:12.639Z,98083.88
2022-10-18T09:45:37.845Z,98069.31
2022-10-18T09:46:47.926Z,98068.38
2022-10-18T09:48:04.476Z,98066.06
2022-10-18T09:49:40.392Z,98064.94
2022-10-18T09:50:46.454Z,98060.03
2022-10-18T09:51:50.228Z,98060.69
2022-10-18T09:53:02.140Z,98063.19
2022-10-18T09:54:12.838Z,98053.84
2022-10-18T09:55:28.732Z,98053.28
2022-10-18T09:56:39.450Z,98049.44
2022-10-18T09:57:57.321Z,98044.47
2022-10-18T09:58:58.985Z,98042.38
2022-10-18T10:00:03.328Z,98036.59
2022-10-18T10:01:05.288Z,98041.50
2022-10-18T10:02:09.366Z,98039.66
2022-10-18T10:03:14.931Z,98034.13
2022-10-18T10:04:16.435Z,98034.84
2022-10-18T10:05:18.948Z,98037.09
2022-10-18T10:06:29.973Z,98026.44
2022-10-18T10:07:41.557Z,98020.28
2022-10-18T10:09:07.389Z,98013.72
2022-10-18T10:10:25.680Z,98019.63
2022-10-18T10:11:28.766Z,98018.81
2022-10-18T10:12:39.385Z,98014.78
2022-10-18T10:13:40.975Z,98021.25
2022-10-18T10:14:45.355Z,98008.84
2022-10-18T10:16:03.263Z,98011.28
2022-10-18T10:17:34.938Z,98008.41
2022-10-18T10:18:40.289Z,98001.75
2022-10-18T10:19:57.424Z,98004.47
2022-10-18T10:21:01.856Z,97992.66
2022-10-18T10:22:10.457Z,97990.63
2022-10-18T10:23:37.385Z,97984.94
2022-10-18T10:24:44.671Z,97989.94
2022-10-18T10:25:52.012Z,97984.94
2022-10-18T10:27:00.289Z,97978.09
2022-10-18T10:28:13.343Z,97982.72
2022-10-18T10:29:45.524Z,97975.44
2022-10-18T10:30:47.559Z,97969.47
2022-10-18T10:32:02.421Z,97963.19
2022-10-18T10:33:06.713Z,97962.38
2022-10-18T10:34:14.482Z,97963.91
2022-10-18T10:35:42.322Z,97959.94
2022-10-18T10:36:54.680Z,97948.47
2022-10-18T10:37:57.161Z,97947.44
2022-10-18T10:39:18.977Z,97948.16
2022-10-18T10:40:26.372Z,97944.47
2022-10-18T10:42:59.997Z,97939.41
2022-10-18T10:44:26.285Z,97939.06
2022-10-18T10:45:41.286Z,97938.00
2022-10-18T10:46:43.487Z,97935.72
2022-10-18T10:47:45.073Z,97938.72
2022-10-18T10:49:09.579Z,97929.19
2022-10-18T10:50:28.313Z,97917.94
2022-10-18T10:51:29.854Z,97925.31
2022-10-18T10:52:31.635Z,97924.97
2022-10-18T10:53:59.039Z,97914.00
2022-10-18T10:55:30.459Z,97920.22
2022-10-18T10:56:53.199Z,97909.44
2022-10-18T10:57:56.346Z,97906.22
2022-10-18T10:59:14.517Z,97903.69
2022-10-18T11:00:39.121Z,97898.09
2022-10-18T11:01:41.732Z,97897.91
2022-10-18T11:02:54.277Z,97889.63
2022-10-18T11:04:28.122Z,97890.72
2022-10-18T11:05:29.673Z,97892.19
2022-10-18T11:06:34.261Z,97882.97
2022-10-18T11:07:43.290Z,97879.88
2022-10-18T11:10:01.272Z,97877.88
2022-10-18T11:11:27.716Z,97866.03
2022-10-18T11:12:52.431Z,97864.00
2022-10-18T11:14:21.115Z,97861.72
2022-10-18T11:15:43.321Z,97857.03
2022-10-18T11:17:08.061Z,97853.28
2022-10-18T11:18:24.162Z,97852.84
2022-10-18T11:19:39.349Z,97853.28
2022-10-18T11:20:46.138Z,97843.50
2022-10-18T11:21:47.834Z,97844.34
2022-10-18T11:23:19.272Z,97843.25
2022-10-18T11:24:24.942Z,97842.47
2022-10-18T11:25:52.614Z,97829.88
2022-10-18T11:27:02.161Z,97838.31
2022-10-18T11:28:12.038Z,97836.13
2022-10-18T11:29:39.991Z,97831.69
2022-10-18T11:30:47.836Z,97823.50
2022-10-18T11:31:49.333Z,97819.91
2022-10-18T11:33:15.745Z,97827.06
2022-10-18T11:34:32.781Z,97817.09
2022-10-18T11:35:54.590Z,97819.56
2022-10-18T11:37:23.044Z,97817.72
2022-10-18T11:38:29.362Z,97821.41
2022-10-18T11:39:57.459Z,97811.44
2022-10-18T11:41:27.810Z,97812.97
2022-10-18T11:42:47.826Z,97808.19
2022-10-18T11:44:02.244Z,97802.81
2022-10-18T11:45:10.729Z,97802.94
2022-10-18T11:46:44.879Z,97795.00
2022-10-18T11:48:04.696Z,97795.75
2022-10-18T11:49:11.571Z,97796.53
2022-10-18T11:50:26.597Z,97795.00
2022-10-18T11:51:50.220Z,97793.47
2022-10-18T11:52:55.878Z,97789.50
2022-10-18T11:54:15.509Z,97782.63
2022-10-18T11:55:38.516Z,97784.44
2022-10-18T11:56:52.303Z,97779.16
2022-10-18T11:58:40.540Z,97779.25
2022-10-18T12:00:02.837Z,97773.00
2022-10-18T12:01:28.916Z,97766.91
2022-10-18T12:02:55.935Z,97772.47
2022-10-18T12:04:03.279Z,97763.28
2022-10-18T12:06:37.402Z,97759.09
2022-10-18T12:07:58.430Z,97764.88
2022-10-18T12:09:08.167Z,97766.50
2022-10-18T12:10:22.079Z,97758.00
2022-10-18T12:11:44.019Z,97745.69
2022-10-18T12:12:58.408Z,97745.41
2022-10-18T12:14:03.392Z,97749.47
2022-10-18T12:15:16.208Z,97743.41
2022-10-18T12:16:38.866Z,97744.66
2022-10-18T12:17:52.618Z,97743.19
2022-10-18T12:19:00.378Z,97740.88
2022-10-18T12:20:11.360Z,97746.31
2022-10-18T12:21:13.788Z,97740.16
2022-10-18T12:22:28.333Z,97740.56
2022-10-18T12:23:29.920Z,97733.88
2022-10-18T12:24:33.113Z,97731.38
2022-10-18T12:25:38.587Z,97731.38
2022-10-18T12:26:40.369Z,97728.22
2022-10-18T12:28:17.289Z,97734.94
2022-10-18T12:29:35.355Z,97723.38
2022-10-18T12:31:03.117Z,97724.56
2022-10-18T12:32:16.609Z,97719.78
2022-10-18T12:33:28.125Z,97717.16
2022-10-18T12:34:36.486Z,97715.72
2022-10-18T12:36:06.010Z,97716.97
2022-10-18T12:37:35.405Z,97717.41
2022-10-18T12:38:41.585Z,97715.47
2022-10-18T12:40:12.463Z,97717.69
2022-10-18T12:41:22.832Z,97712.91
2022-10-18T12:42:30.894Z,97714.44
2022-10-18T12:43:37.940Z,97707.41
2022-10-18T12:44:40.226Z,97707.06
2022-10-18T12:45:54.659Z,97701.31
2022-10-18T12:46:58.750Z,97705.19
2022-10-18T12:48:07.647Z,97696.31
2022-10-18T12:49:11.713Z,97698.47
2022-10-18T12:50:35.202Z,97693.06
2022-10-18T12:51:50.789Z,97697.31
2022-10-18T12:53:10.255Z,97700.28
2022-10-18T12:54:12.851Z,97696.09
2022-10-18T12:55:19.453Z,97690.69
2022-10-18T12:56:30.784Z,97689.88
2022-10-18T12:57:53.795Z,97686.78
2022-10-18T12:59:17.131Z,97681.03
2022-10-18T13:00:31.010Z,97686.03
2022-10-18T13:01:50.692Z,97676.66
2022-10-18T13:03:18.121Z,97677.88
2022-10-18T13:04:28.834Z,97675.16
2022-10-18T13:05:53.515Z,97665.13
2022-10-18T13:07:05.221Z,97669.06
2022-10-18T13:08:31.690Z,97662.13
2022-10-18T13:10:02.936Z,97665.28
2022-10-18T13:11:10.509Z,97659.88
2022-10-18T13:12:14.677Z,97662.97
2022-10-18T13:13:40.525Z,97655.56
2022-10-18T13:15:12.642Z,97653.25
2022-10-18T13:16:22.768Z,97660.19
2022-10-18T13:17:36.459Z,97658.94
2022-10-18T13:18:52.267Z,97655.78